createdAt,value
2019-04-28T00:03:24.501Z,101035.32
2019-04-28T00:08:27.226Z,101033.60
2019-04-28T00:13:32.110Z,101032.56
2019-04-28T00:18:35.116Z,101028.47
2019-04-28T00:23:58.268Z,101031.65
2019-04-28T00:29:01.295Z,101034.22
2019-04-28T00:34:05.129Z,101032.52
2019-04-28T00:39:08.061Z,101035.08
2019-04-28T00:44:11.933Z,101036.67
2019-04-28T00:49:16.900Z,101041.58
2019-04-28T00:54:19.663Z,101032.47
2019-04-28T00:59:22.423Z,101033.55
2019-04-28T01:04:25.286Z,101039.66
2019-04-28T01:09:28.168Z,101037.75
2019-04-28T01:14:31.064Z,101039.66
2019-04-28T01:19:36.941Z,101030.93
2019-04-28T01:24:40.079Z,101036.59
2019-04-28T01:29:42.950Z,101032.23
2019-04-28T01:34:45.689Z,101038.59
2019-04-28T01:39:49.577Z,101041.06
2019-04-28T01:44:52.422Z,101040.91
2019-04-28T01:49:55.132Z,101049.19
2019-04-28T01:54:57.856Z,101049.72
2019-04-28T02:00:00.600Z,101054.11
2019-04-28T02:05:04.436Z,101052.60
2019-04-28T02:10:07.301Z,101065.77
2019-04-28T02:15:10.589Z,101072.98
2019-04-28T02:20:14.361Z,101069.69
2019-04-28T02:25:17.087Z,101071.17
2019-04-28T02:30:22.613Z,101062.30
2019-04-28T02:35:24.438Z,101069.09
2019-04-28T02:40:27.172Z,101072.06
2019-04-28T02:45:31.568Z,101073.69
2019-04-28T02:50:45.131Z,101076.27
2019-04-28T02:55:47.853Z,101073.30
2019-04-28T03:01:04.953Z,101081.11
2019-04-28T03:05:55.471Z,101082.42
2019-04-28T03:11:00.610Z,101092.89
2019-04-28T03:16:03.265Z,101093.95
2019-04-28T03:21:06.059Z,101095.42
2019-04-28T03:26:27.026Z,101096.97
2019-04-28T03:32:15.850Z,101096.82
2019-04-28T03:37:05.529Z,101098.66
2019-04-28T03:42:08.272Z,101101.28
2019-04-28T03:47:11.153Z,101109.66
2019-04-28T03:52:13.905Z,101109.72
2019-04-28T03:57:16.823Z,101117.32
2019-04-28T04:02:21.164Z,101111.56
2019-04-28T04:07:24.313Z,101120.29
2019-04-28T04:12:47.349Z,101118.06
2019-04-28T04:18:11.055Z,101118.48
2019-04-28T04:23:14.158Z,101120.67
2019-04-28T04:28:16.921Z,101124.17
2019-04-28T04:33:20.681Z,101130.74
2019-04-28T04:38:23.754Z,101130.20
2019-04-28T04:43:26.698Z,101128.61
2019-04-28T04:48:31.179Z,101133.31
2019-04-28T04:53:34.390Z,101138.44
2019-04-28T04:58:37.140Z,101143.81
2019-04-28T05:03:41.818Z,101153.22
2019-04-28T05:08:44.548Z,101157.00
2019-04-28T05:13:47.300Z,101159.96
2019-04-28T05:18:50.035Z,101172.31
2019-04-28T05:24:20.004Z,101169.05
2019-04-28T05:29:26.772Z,101174.91
2019-04-28T05:34:29.658Z,101179.66
2019-04-28T05:39:32.598Z,101191.39
2019-04-28T05:44:37.596Z,101196.98
2019-04-28T05:49:51.419Z,101196.98
2019-04-28T05:55:01.301Z,101201.30
2019-04-28T06:00:23.026Z,101205.02
2019-04-28T06:05:25.845Z,101216.49
2019-04-28T06:10:29.909Z,101220.44
2019-04-28T06:15:39.559Z,101227.38
2019-04-28T06:20:43.001Z,101227.16
2019-04-28T06:25:45.870Z,101233.42
2019-04-28T06:30:48.668Z,101240.37
2019-04-28T06:35:51.622Z,101244.48
2019-04-28T06:40:54.322Z,101238.38
2019-04-28T06:45:57.036Z,101242.77
2019-04-28T06:50:59.747Z,101252.30
2019-04-28T06:56:02.468Z,101257.76
2019-04-28T07:01:05.181Z,101261.49
2019-04-28T07:06:07.901Z,101260.48
2019-04-28T07:11:10.739Z,101259.83
2019-04-28T07:16:13.458Z,101272.05
2019-04-28T07:21:31.523Z,101270.70
2019-04-28T07:26:34.228Z,101266.79
2019-04-28T07:31:37.052Z,101271.71
2019-04-28T07:36:39.829Z,101277.66
2019-04-28T07:41:43.639Z,101283.77
2019-04-28T07:46:46.461Z,101286.03
2019-04-28T07:51:56.489Z,101290.73
2019-04-28T07:56:59.279Z,101294.96
2019-04-28T08:02:02.012Z,101299.31
2019-04-28T08:07:04.739Z,101312.16
2019-04-28T08:12:07.494Z,101321.08
2019-04-28T08:17:10.411Z,101304.11
2019-04-28T08:22:13.191Z,101325.69
2019-04-28T08:27:15.911Z,101330.18
2019-04-28T08:32:28.311Z,101331.87
2019-04-28T08:37:31.035Z,101333.08
2019-04-28T08:42:33.792Z,101333.36
2019-04-28T08:47:39.132Z,101344.34
2019-04-28T08:52:41.852Z,101349.00
2019-04-28T08:57:44.680Z,101356.02
2019-04-28T09:02:47.409Z,101354.57
2019-04-28T09:07:50.214Z,101362.34
2019-04-28T09:12:52.951Z,101365.34
2019-04-28T09:17:55.671Z,101363.22
2019-04-28T09:22:58.507Z,101369.07
2019-04-28T09:28:01.230Z,101373.99
2019-04-28T09:33:03.974Z,101385.19
2019-04-28T09:38:06.690Z,101381.63
2019-04-28T09:43:27.905Z,101377.66
2019-04-28T09:48:30.638Z,101369.52
2019-04-28T09:53:33.456Z,101373.44
2019-04-28T09:58:36.218Z,101376.73
2019-04-28T10:03:38.929Z,101381.47
2019-04-28T10:08:41.643Z,101380.37
2019-04-28T10:13:44.353Z,101392.58
2019-04-28T10:18:48.876Z,101387.00
2019-04-28T10:23:51.694Z,101390.81
2019-04-28T10:28:54.406Z,101390.82
2019-04-28T10:34:00.278Z,101399.98
2019-04-28T10:39:23.843Z,101398.83
2019-04-28T10:44:28.301Z,101405.52
2019-04-28T10:49:31.106Z,101407.45
2019-04-28T10:54:33.824Z,101406.69
2019-04-28T10:59:36.554Z,101410.11
2019-04-28T11:04:47.364Z,101405.70
2019-04-28T11:09:56.828Z,101409.02
2019-04-28T11:14:59.633Z,101408.39
2019-04-28T11:20:02.969Z,101408.22
2019-04-28T11:25:06.268Z,101405.98
2019-04-28T11:30:09.595Z,101404.11
2019-04-28T11:35:22.604Z,101404.26
2019-04-28T11:40:25.310Z,101402.12
2019-04-28T11:45:28.105Z,101407.54
2019-04-28T11:50:31.327Z,101400.53
2019-04-28T11:55:34.081Z,101404.19
2019-04-28T12:00:37.220Z,101408.12
2019-04-28T12:05:43.510Z,101412.55
2019-04-28T12:11:12.302Z,101415.64
2019-04-28T12:16:52.697Z,101419.78
2019-04-28T12:21:55.732Z,101420.89
2019-04-28T12:26:58.437Z,101428.39
2019-04-28T12:32:01.139Z,101433.08
2019-04-28T12:37:03.862Z,101440.97
2019-04-28T12:42:06.582Z,101445.92
2019-04-28T12:47:09.414Z,101451.90
2019-04-28T12:52:14.219Z,101460.66
2019-04-28T12:57:17.399Z,101458.72
2019-04-28T13:02:48.927Z,101472.59
2019-04-28T13:07:51.680Z,101478.72
2019-04-28T13:12:54.390Z,101487.76
2019-04-28T13:17:57.102Z,101493.23
2019-04-28T13:22:59.851Z,101500.81
2019-04-28T13:28:02.649Z,101520.87
2019-04-28T13:33:05.357Z,101522.56
2019-04-28T13:38:08.109Z,101526.74
2019-04-28T13:43:10.895Z,101526.92
2019-04-28T13:48:13.622Z,101528.59
2019-04-28T13:53:16.850Z,101523.14
2019-04-28T13:58:21.925Z,101526.51
2019-04-28T14:03:32.904Z,101535.63
2019-04-28T14:08:35.615Z,101536.66
2019-04-28T14:13:38.334Z,101534.72
2019-04-28T14:18:41.056Z,101528.84
2019-04-28T14:23:43.839Z,101524.33
2019-04-28T14:28:46.608Z,101521.50
2019-04-28T14:33:49.332Z,101514.52
2019-04-28T14:38:52.133Z,101521.63
2019-04-28T14:43:54.896Z,101519.48
2019-04-28T14:48:57.663Z,101530.53
2019-04-28T14:54:00.414Z,101532.70
2019-04-28T14:59:04.203Z,101534.65
2019-04-28T15:04:13.875Z,101529.13
2019-04-28T15:09:34.804Z,101535.85
2019-04-28T15:14:37.617Z,101529.20
2019-04-28T15:19:40.352Z,101522.89
2019-04-28T15:24:43.164Z,101523.39
2019-04-28T15:29:45.887Z,101522.77
2019-04-28T15:34:48.624Z,101526.66
2019-04-28T15:39:51.327Z,101527.91
2019-04-28T15:44:54.048Z,101527.84
2019-04-28T15:49:56.757Z,101527.03
2019-04-28T15:54:59.966Z,101525.53
2019-04-28T16:00:03.356Z,101526.87
2019-04-28T16:05:06.831Z,101530.33
2019-04-28T16:10:09.678Z,101528.80
2019-04-28T16:15:12.489Z,101529.60
2019-04-28T16:20:15.385Z,101531.90
2019-04-28T16:25:18.192Z,101527.03
2019-04-28T16:31:07.718Z,101528.59
2019-04-28T16:36:10.456Z,101530.47
2019-04-28T16:41:13.188Z,101533.97
2019-04-28T16:46:15.898Z,101536.31
2019-04-28T16:51:18.609Z,101540.76
2019-04-28T16:57:06.955Z,101538.75
2019-04-28T17:02:27.573Z,101541.00
2019-04-28T17:07:30.313Z,101549.78
2019-04-28T17:12:33.033Z,101559.00
2019-04-28T17:17:35.785Z,101557.15
2019-04-28T17:22:38.515Z,101564.70
2019-04-28T17:27:41.236Z,101567.48
2019-04-28T17:32:43.962Z,101567.00
2019-04-28T17:37:46.681Z,101577.69
2019-04-28T17:42:49.419Z,101574.80
2019-04-28T17:47:54.045Z,101581.69
2019-04-28T17:52:56.778Z,101578.77
2019-04-28T17:57:59.489Z,101587.30
2019-04-28T18:03:12.218Z,101587.04
2019-04-28T18:08:21.144Z,101596.80
2019-04-28T18:13:20.167Z,101609.47
2019-04-28T18:18:53.013Z,101602.92
2019-04-28T18:24:00.444Z,101611.91
2019-04-28T18:29:04.633Z,101619.48
2019-04-28T18:34:43.024Z,101623.58
2019-04-28T18:40:04.332Z,101630.34
2019-04-28T18:45:08.356Z,101637.50
2019-04-28T18:50:18.846Z,101628.70
2019-04-28T18:55:21.578Z,101659.41
2019-04-28T19:00:26.313Z,101669.16
2019-04-28T19:05:32.527Z,101676.51
2019-04-28T19:10:42.548Z,101701.70
2019-04-28T19:16:16.685Z,101702.92
2019-04-28T19:21:19.394Z,101707.66
2019-04-28T19:26:22.218Z,101717.99
2019-04-28T19:31:24.974Z,101722.72
2019-04-28T19:36:27.706Z,101727.76
2019-04-28T19:41:30.455Z,101731.03
2019-04-28T19:46:33.182Z,101734.05
2019-04-28T19:56:48.368Z,101732.88
2019-04-28T20:01:51.238Z,101741.64
2019-04-28T20:06:54.023Z,101750.51
2019-04-28T20:11:56.826Z,101765.12
2019-04-28T20:16:59.552Z,101756.53
2019-04-28T20:22:02.317Z,101769.23
2019-04-28T20:27:05.134Z,101765.29
2019-04-28T20:32:07.852Z,101768.83
2019-04-28T20:37:27.136Z,101770.66
2019-04-28T20:42:55.333Z,101780.50
2019-04-28T20:47:58.225Z,101778.07
2019-04-28T20:53:00.962Z,101779.52
2019-04-28T20:58:03.907Z,101782.39
2019-04-28T21:03:06.637Z,101787.77
2019-04-28T21:08:09.387Z,101783.50
2019-04-28T21:13:12.116Z,101790.09
2019-04-28T21:18:14.832Z,101793.75
2019-04-28T21:23:17.596Z,101794.53
2019-04-28T21:28:20.319Z,101801.77
2019-04-28T21:33:23.041Z,101801.38
2019-04-28T21:38:28.458Z,101801.38
2019-04-28T21:43:49.271Z,101806.87
2019-04-28T21:48:55.653Z,101814.83
2019-04-28T21:53:58.370Z,101811.89
2019-04-28T21:59:01.099Z,101806.39
2019-04-28T22:04:04.427Z,101820.27
2019-04-28T22:09:07.333Z,101826.59
2019-04-28T22:14:10.047Z,101822.43
2019-04-28T22:19:12.900Z,101822.93
2019-04-28T22:24:21.463Z,101824.51
2019-04-28T22:29:24.169Z,101831.33
2019-04-28T22:34:26.884Z,101826.94
2019-04-28T22:39:29.644Z,101827.87
2019-04-28T22:44:32.373Z,101833.18
2019-04-28T22:49:35.098Z,101830.61
2019-04-28T22:55:06.386Z,101837.61
2019-04-28T23:00:33.194Z,101846.27
2019-04-28T23:05:36.072Z,101848.11
2019-04-28T23:10:38.842Z,101843.70
2019-04-28T23:15:41.581Z,101851.50
2019-04-28T23:20:46.726Z,101857.82
2019-04-28T23:25:49.461Z,101855.75
2019-04-28T23:30:52.181Z,101857.44
2019-04-28T23:35:54.909Z,101856.10
2019-04-28T23:41:14.633Z,101862.76
2019-04-28T23:46:17.363Z,101871.03
2019-04-28T23:51:32.325Z,101860.23
2019-04-28T23:56:35.053Z,101862.40
